Date,TemperatureHighF,TemperatureAvgF,TemperatureLowF,DewpointHighF,DewpointAvgF,DewpointLowF,HumidityHigh,HumidityAvg,HumidityLow,PressureMaxIn,PressureMinIn,WindSpeedMaxMPH,WindSpeedAvgMPH,GustSpeedMaxMPH,PrecipitationSumIn
2013-3-1,44,32,21,28,23,17,92,71,34,30.27,30.19,11,3,17,0.01
2013-3-2,60,44,28,35,30,23,84,62,31,30.23,29.89,11,2,20,0.00
2013-3-3,66,48,32,36,31,28,86,55,25,29.89,29.44,15,3,21,0.00
2013-3-4,48,35,23,32,17,6,76,49,27,30.15,29.47,19,10,25,0.00
2013-3-5,42,28,20,13,9,5,72,47,23,30.34,30.15,15,5,19,0.00
2013-3-6,47,31,19,25,19,12,80,63,41,30.28,29.90,12,4,21,0.00
2013-3-7,56,36,22,30,26,19,89,69,36,29.99,29.88,1,0,14,0.00
2013-3-8,52,41,28,39,31,23,88,69,45,29.99,29.57,4,1,14,0.00
2013-3-9,45,33,26,44,32,22,97,94,86,29.96,29.44,18,11,28,0.02
2013-3-10,31,24,12,22,14,7,86,68,50,30.14,29.97,19,8,23,0.00
2013-3-11,45,30,12,34,21,7,86,72,52,30.12,29.92,11,1,20,0.02
2013-3-12,42,34,24,27,18,11,78,54,29,30.26,30.11,15,6,23,0.00
2013-3-13,65,42,21,37,27,16,80,58,24,30.25,30.03,4,0,14,0.00
2013-3-14,71,54,40,35,32,29,72,46,22,30.10,29.84,7,1,14,0.00
2013-3-15,76,56,41,38,31,22,68,44,14,29.84,29.58,13,3,20,0.00
2013-3-16,48,39,31,32,27,23,85,64,47,29.90,29.74,6,1,14,0.00
2013-3-17,52,38,29,37,29,20,95,74,34,29.87,29.48,18,5,24,0.03
2013-3-18,46,36,26,24,16,10,77,48,23,29.97,29.75,14,5,25,0.00
2013-3-19,46,35,25,31,20,9,88,56,30,30.33,29.93,16,4,22,0.00
2013-3-20,50,32,14,19,14,8,83,51,26,30.36,29.79,13,3,22,0.00
2013-3-21,45,35,25,36,23,16,92,63,40,29.79,29.56,12,4,17,0.05
2013-3-22,48,38,30,32,28,24,92,68,42,29.86,29.71,11,2,16,0.01
2013-3-23,33,25,20,31,20,13,93,80,64,30.20,29.83,16,7,27,0.00
2013-3-24,31,20,8,16,10,2,79,66,44,30.31,30.15,15,5,20,0.01
2013-3-25,34,22,12,13,10,6,77,60,33,30.39,30.31,10,4,16,0.00
2013-3-26,42,29,10,28,17,6,83,64,32,30.32,30.03,11,2,18,0.00
2013-3-27,60,41,26,33,25,20,85,59,24,30.06,29.99,2,0,14,0.00
2013-3-28,66,47,30,36,32,26,89,61,31,30.05,29.90,9,2,18,0.00
2013-3-29,73,53,39,41,35,30,79,54,21,29.99,29.75,15,2,24,0.00
2013-3-30,62,51,41,39,34,31,73,54,36,29.92,29.81,10,4,14,0.00
2013-3-31,42,38,36,23,22,21,60,53,44,30.03,29.94,10,5,16,0.00